Time;durP1;ratioP1;P1;durP2;ratioP2;P2;SDS_P1;SDS_P2;PMS_P1;PMS_P2;Temp;Humidity;BMP_temperature;BMP_pressure;BME280_temperature;BME280_humidity;BME280_pressure;Samples;Min_cycle;Max_cycle;Signal;HPM_P1;HPM_P2
2023/05/22 00:01:25;;;;;;;10.25;9.30;;;21.00;60.80;;;;;;5074155;28;20336;-64
2023/05/22 00:03:51;;;;;;;10.02;9.23;;;21.00;60.80;;;;;;5073810;28;20171;-65
2023/05/22 00:06:17;;;;;;;10.00;9.10;;;21.00;60.80;;;;;;5074069;28;20274;-64
2023/05/22 00:08:43;;;;;;;10.48;9.57;;;21.00;60.90;;;;;;5074265;28;20642;-64
2023/05/22 00:11:08;;;;;;;9.70;8.80;;;20.90;60.80;;;;;;5073500;28;20269;-64
2023/05/22 00:13:34;;;;;;;10.57;9.63;;;20.90;60.80;;;;;;5074343;28;20253;-63
2023/05/22 00:15:59;;;;;;;10.43;9.52;;;20.90;60.80;;;;;;5073783;28;20174;-64
2023/05/22 00:18:25;;;;;;;10.63;9.63;;;21.00;60.90;;;;;;5073374;28;20253;-64
2023/05/22 00:20:52;;;;;;;9.90;9.00;;;21.00;60.90;;;;;;5074053;28;20189;-64
2023/05/22 00:23:17;;;;;;;9.82;9.02;;;20.90;60.90;;;;;;5073018;28;20296;-64
2023/05/22 00:25:43;;;;;;;10.50;9.48;;;20.90;60.90;;;;;;5073768;28;20202;-63
2023/05/22 00:28:09;;;;;;;9.23;8.43;;;20.90;60.90;;;;;;5073479;28;20182;-64
2023/05/22 00:30:35;;;;;;;10.02;9.23;;;20.90;60.90;;;;;;5073352;28;20225;-64
2023/05/22 00:33:01;;;;;;;10.02;9.13;;;20.90;60.90;;;;;;5074016;28;20589;-65
2023/05/22 00:35:27;;;;;;;9.88;9.02;;;20.90;60.90;;;;;;5073336;28;20218;-65
2023/05/22 00:37:53;;;;;;;9.95;9.10;;;20.90;60.90;;;;;;5073008;28;20265;-65
2023/05/22 00:40:19;;;;;;;11.43;10.32;;;20.90;60.90;;;;;;5073390;28;20641;-65
2023/05/22 00:42:45;;;;;;;9.88;8.90;;;20.90;60.90;;;;;;5073585;28;20206;-64
2023/05/22 00:45:12;;;;;;;10.63;9.63;;;20.90;60.90;;;;;;5072356;28;20183;-64
2023/05/22 00:47:38;;;;;;;10.20;9.30;;;20.90;60.90;;;;;;5073560;28;20178;-64
2023/05/22 00:50:04;;;;;;;10.63;9.52;;;20.90;61.00;;;;;;5073629;28;20177;-63
2023/05/22 00:52:30;;;;;;;9.93;8.95;;;20.90;61.10;;;;;;5071623;28;20185;-63
2023/05/22 00:54:55;;;;;;;10.38;9.38;;;20.90;61.00;;;;;;5072186;28;20178;-64
2023/05/22 00:57:21;;;;;;;10.55;9.57;;;20.90;61.00;;;;;;5073012;28;20227;-64
2023/05/22 00:59:47;;;;;;;10.27;9.38;;;20.90;61.10;;;;;;5072784;28;20227;-65
2023/05/22 01:02:15;;;;;;;10.32;9.52;;;20.90;61.10;;;;;;5071846;28;20669;-65
2023/05/22 01:04:44;;;;;;;10.05;9.20;;;20.90;61.10;;;;;;5072227;28;20319;-65
2023/05/22 01:07:09;;;;;;;10.07;9.18;;;20.90;61.00;;;;;;5070880;28;20178;-64
2023/05/22 01:09:35;;;;;;;10.45;9.57;;;20.90;61.10;;;;;;5071938;28;20185;-64
2023/05/22 01:12:19;;;;;;;10.93;9.85;;;20.80;61.10;;;;;;5073058;28;20170;-63
2023/05/22 01:14:54;;;;;;;9.93;9.07;;;20.90;61.20;;;;;;5071971;28;20181;-63
2023/05/22 01:17:44;;;;;;;10.00;9.13;;;20.90;61.10;;;;;;5071465;28;20194;-64
2023/05/22 01:20:29;;;;;;;10.65;9.65;;;20.90;61.10;;;;;;5070871;28;20178;-64
2023/05/22 01:23:31;;;;;;;9.90;9.00;;;20.80;61.10;;;;;;5073086;28;20238;-63
2023/05/22 01:26:18;;;;;;;10.23;9.32;;;20.90;61.20;;;;;;5072961;28;20700;-63
2023/05/22 01:29:06;;;;;;;10.48;9.57;;;20.90;61.20;;;;;;5071265;28;20503;-64
2023/05/22 01:31:32;;;;;;;10.10;9.20;;;20.90;61.20;;;;;;5072213;28;20181;-64
2023/05/22 01:34:00;;;;;;;9.95;9.05;;;20.90;61.20;;;;;;5071346;28;20265;-65
2023/05/22 01:36:27;;;;;;;9.63;8.82;;;20.80;61.20;;;;;;5054837;28;20234;-65
2023/05/22 01:38:53;;;;;;;9.85;9.05;;;20.90;61.30;;;;;;5072983;28;20206;-65
2023/05/22 01:41:19;;;;;;;9.95;9.02;;;20.90;61.20;;;;;;5070795;28;20240;-64
2023/05/22 01:43:45;;;;;;;9.90;9.00;;;20.80;61.20;;;;;;5073008;28;20175;-64
2023/05/22 01:46:10;;;;;;;10.10;9.20;;;20.80;61.20;;;;;;5054864;28;20215;-64
2023/05/22 01:48:36;;;;;;;9.88;9.07;;;20.80;61.30;;;;;;5071936;28;20669;-64
2023/05/22 01:51:20;;;;;;;9.98;9.00;;;20.80;61.30;;;;;;5072985;28;20683;-64
2023/05/22 01:53:59;;;;;;;10.98;9.88;;;20.80;61.30;;;;;;5056952;28;20224;-65
2023/05/22 01:56:33;;;;;;;9.60;8.80;;;20.80;61.40;;;;;;5070268;28;20529;-64
2023/05/22 01:59:18;;;;;;;9.70;8.80;;;20.80;61.30;;;;;;5055604;28;20178;-65
2023/05/22 02:01:44;;;;;;;9.63;8.80;;;20.80;61.30;;;;;;5071901;28;20194;-65
2023/05/22 02:04:10;;;;;;;10.38;9.45;;;20.80;61.40;;;;;;5053947;28;20189;-65
2023/05/22 02:06:35;;;;;;;9.50;8.63;;;20.80;61.40;;;;;;5055003;28;20180;-64
2023/05/22 02:09:01;;;;;;;9.93;8.95;;;20.80;61.40;;;;;;5070696;28;20236;-64
2023/05/22 02:11:27;;;;;;;9.07;8.27;;;20.90;61.50;;;;;;5054510;28;20178;-64
2023/05/22 02:13:53;;;;;;;9.10;8.30;;;20.80;61.40;;;;;;5071275;28;20210;-64
2023/05/22 02:16:20;;;;;;;9.27;8.52;;;20.80;61.40;;;;;;5053570;28;20209;-64
2023/05/22 02:18:47;;;;;;;10.23;9.23;;;20.80;62.20;;;;;;5055121;28;20186;-64
2023/05/22 02:21:12;;;;;;;9.55;8.75;;;20.80;61.30;;;;;;5071979;28;20695;-63
2023/05/22 02:23:38;;;;;;;9.68;8.80;;;20.80;61.40;;;;;;5071802;28;20178;-63
2023/05/22 02:26:04;;;;;;;9.63;8.82;;;20.80;61.40;;;;;;5071405;28;20529;-63
2023/05/22 02:28:30;;;;;;;9.18;8.38;;;20.80;61.40;;;;;;5072408;28;20224;-64
2023/05/22 02:30:56;;;;;;;9.50;8.70;;;20.80;61.40;;;;;;5071784;28;20171;-64
2023/05/22 02:33:21;;;;;;;10.00;9.10;;;20.80;61.50;;;;;;5072285;28;20239;-64
2023/05/22 02:35:47;;;;;;;9.38;8.65;;;20.80;61.60;;;;;;5072049;28;20618;-65
2023/05/22 02:38:12;;;;;;;9.80;9.00;;;20.70;61.50;;;;;;5071209;28;20171;-65
2023/05/22 02:40:38;;;;;;;9.85;8.95;;;20.80;61.60;;;;;;5072332;28;20346;-65
2023/05/22 02:43:03;;;;;;;9.32;8.55;;;20.70;61.50;;;;;;5072161;28;20242;-64
2023/05/22 02:45:29;;;;;;;10.00;9.00;;;20.80;61.60;;;;;;5071147;28;20166;-62
2023/05/22 02:47:54;;;;;;;9.80;9.00;;;20.80;61.60;;;;;;5072264;28;20182;-64
2023/05/22 02:50:20;;;;;;;10.05;9.25;;;20.70;61.50;;;;;;5072146;28;20497;-63
2023/05/22 02:52:45;;;;;;;10.18;9.35;;;20.70;61.50;;;;;;5071559;28;20179;-64
2023/05/22 02:55:11;;;;;;;10.02;9.07;;;20.80;61.60;;;;;;5071907;28;20174;-65
2023/05/22 02:57:36;;;;;;;10.25;9.25;;;20.80;61.60;;;;;;5072177;28;20174;-64
2023/05/22 03:00:04;;;;;;;10.18;9.32;;;20.70;61.50;;;;;;5071343;28;20170;-65
2023/05/22 03:02:31;;;;;;;9.65;8.85;;;20.80;61.60;;;;;;5072120;28;20214;-65
2023/05/22 03:04:57;;;;;;;9.40;8.60;;;20.80;61.60;;;;;;5071546;28;20178;-65
2023/05/22 03:07:25;;;;;;;9.32;8.55;;;20.70;62.40;;;;;;5072778;28;20186;-64
2023/05/22 03:09:51;;;;;;;9.05;8.30;;;20.80;61.60;;;;;;5075568;28;20178;-64
2023/05/22 03:12:16;;;;;;;9.25;8.55;;;20.70;61.50;;;;;;5074552;28;20614;-63
2023/05/22 03:14:42;;;;;;;9.90;9.00;;;20.70;61.60;;;;;;5075328;28;20175;-63
2023/05/22 03:17:07;;;;;;;9.60;8.77;;;20.70;61.60;;;;;;5075325;28;20185;-64
2023/05/22 03:19:33;;;;;;;9.10;8.30;;;20.70;61.60;;;;;;5074845;28;20171;-63
2023/05/22 03:21:58;;;;;;;9.80;9.00;;;20.70;61.60;;;;;;5075253;28;20205;-64
2023/05/22 03:24:24;;;;;;;8.75;7.97;;;20.70;61.60;;;;;;5075097;28;20186;-63
2023/05/22 03:26:50;;;;;;;10.20;9.23;;;20.70;61.60;;;;;;5074719;28;20536;-63
2023/05/22 03:29:15;;;;;;;10.07;9.18;;;20.70;61.60;;;;;;5074849;28;20186;-64
2023/05/22 03:31:41;;;;;;;10.23;9.32;;;20.70;61.60;;;;;;5075165;28;20171;-64
2023/05/22 03:34:07;;;;;;;9.40;8.52;;;20.70;61.60;;;;;;5074349;28;20179;-65
2023/05/22 03:36:35;;;;;;;9.35;8.45;;;20.70;61.60;;;;;;5075000;28;20222;-65
2023/05/22 03:39:02;;;;;;;9.27;8.48;;;20.70;61.60;;;;;;5075121;28;20257;-64
2023/05/22 03:41:27;;;;;;;8.95;8.15;;;20.70;62.50;;;;;;5073968;28;20199;-64
2023/05/22 03:43:53;;;;;;;9.25;8.45;;;20.70;61.60;;;;;;5074915;28;20722;-64
2023/05/22 03:46:18;;;;;;;9.43;8.63;;;20.70;61.60;;;;;;5074715;28;20242;-64
2023/05/22 03:48:44;;;;;;;8.82;8.02;;;20.70;61.60;;;;;;5073118;28;20634;-64
2023/05/22 03:51:09;;;;;;;8.85;8.05;;;20.70;61.50;;;;;;5074565;28;20648;-64
2023/05/22 03:53:35;;;;;;;9.52;8.73;;;20.70;61.50;;;;;;5074997;28;20192;-64
2023/05/22 03:56:01;;;;;;;9.13;8.30;;;20.70;61.50;;;;;;5074109;28;20659;-64
2023/05/22 03:58:26;;;;;;;8.50;7.80;;;20.70;61.50;;;;;;5074494;28;20170;-65
2023/05/22 04:00:53;;;;;;;8.98;8.20;;;20.70;61.50;;;;;;5074809;28;20588;-65
2023/05/22 04:03:18;;;;;;;8.63;7.93;;;20.70;61.50;;;;;;5073764;28;20221;-65
2023/05/22 04:05:45;;;;;;;9.65;8.75;;;20.70;61.50;;;;;;5074782;28;20250;-65
2023/05/22 04:08:10;;;;;;;8.57;7.88;;;20.70;61.50;;;;;;5073458;28;20174;-64
2023/05/22 04:10:37;;;;;;;8.68;7.97;;;20.70;61.40;;;;;;5074393;28;20197;-64
2023/05/22 04:13:05;;;;;;;8.95;8.15;;;20.60;61.30;;;;;;5074261;28;20181;-63
2023/05/22 04:15:35;;;;;;;9.55;8.68;;;20.70;61.40;;;;;;5073761;28;20213;-63
2023/05/22 04:18:00;;;;;;;8.85;8.05;;;20.70;62.30;;;;;;5073871;28;20203;-64
2023/05/22 04:20:26;;;;;;;8.90;8.07;;;20.70;61.50;;;;;;5073757;28;20178;-63
2023/05/22 04:22:53;;;;;;;8.27;7.68;;;20.70;61.50;;;;;;5073399;28;20676;-64
2023/05/22 04:25:19;;;;;;;7.90;7.20;;;20.60;61.40;;;;;;5073548;28;20659;-63
2023/05/22 04:27:46;;;;;;;8.50;7.80;;;20.70;61.50;;;;;;5073918;28;20269;-64
2023/05/22 04:30:13;;;;;;;8.40;7.72;;;20.70;61.50;;;;;;5073160;28;20174;-65
2023/05/22 04:32:39;;;;;;;8.98;8.18;;;20.70;61.50;;;;;;5073871;28;20224;-65
2023/05/22 04:35:05;;;;;;;8.18;7.50;;;20.60;61.40;;;;;;5073332;28;20280;-66
2023/05/22 04:37:30;;;;;;;8.50;7.80;;;20.70;61.40;;;;;;5072829;28;20582;-65
2023/05/22 04:40:02;;;;;;;9.10;8.30;;;20.70;61.40;;;;;;5073563;28;20181;-64
2023/05/22 04:42:29;;;;;;;7.75;7.15;;;20.70;61.40;;;;;;5073645;28;20355;-64
2023/05/22 04:44:56;;;;;;;8.75;7.95;;;20.70;61.40;;;;;;5072938;28;20171;-64
2023/05/22 04:47:22;;;;;;;8.35;7.65;;;20.60;61.30;;;;;;5073471;28;20178;-64
2023/05/22 04:49:48;;;;;;;8.52;7.82;;;20.60;61.30;;;;;;5073824;28;20181;-64
2023/05/22 04:52:13;;;;;;;8.90;8.10;;;20.70;61.40;;;;;;5072697;28;20177;-63
2023/05/22 04:54:40;;;;;;;8.07;7.38;;;20.60;61.40;;;;;;5073452;28;20171;-63
2023/05/22 04:57:05;;;;;;;8.27;7.57;;;20.70;61.40;;;;;;5073376;28;20201;-64
2023/05/22 04:59:36;;;;;;;8.43;7.72;;;20.70;61.40;;;;;;5072922;28;20174;-64
2023/05/22 05:02:05;;;;;;;8.07;7.38;;;20.70;62.30;;;;;;5073389;28;20206;-65
2023/05/22 05:04:30;;;;;;;8.10;7.30;;;20.70;61.40;;;;;;5072586;28;20253;-64
2023/05/22 05:06:56;;;;;;;7.75;7.15;;;20.70;61.40;;;;;;5073049;28;20387;-64
2023/05/22 05:09:22;;;;;;;8.70;8.00;;;20.60;61.30;;;;;;5072708;28;20525;-63
2023/05/22 05:11:49;;;;;;;8.63;7.88;;;20.70;61.40;;;;;;5072519;28;20185;-63
2023/05/22 05:14:15;;;;;;;8.30;7.60;;;20.70;61.30;;;;;;5072915;28;20181;-63
2023/05/22 05:16:40;;;;;;;7.70;7.10;;;20.70;61.30;;;;;;5072773;28;20550;-64
2023/05/22 05:19:06;;;;;;;7.45;6.85;;;20.70;61.30;;;;;;5071863;28;20185;-64
2023/05/22 05:21:31;;;;;;;7.68;7.07;;;20.70;61.30;;;;;;5072848;28;20195;-63
2023/05/22 05:23:57;;;;;;;7.53;6.93;;;20.70;61.20;;;;;;5072740;28;20170;-64
2023/05/22 05:26:23;;;;;;;7.57;6.88;;;20.70;61.20;;;;;;5072001;28;20181;-63
2023/05/22 05:28:49;;;;;;;7.72;7.07;;;20.70;61.10;;;;;;5072937;28;20202;-64
2023/05/22 05:31:14;;;;;;;7.55;6.95;;;20.70;61.10;;;;;;5072057;28;20194;-64
2023/05/22 05:33:40;;;;;;;7.50;6.90;;;20.70;61.00;;;;;;5072113;28;20175;-66
2023/05/22 05:36:06;;;;;;;7.88;7.15;;;20.70;61.10;;;;;;5072030;28;20226;-66
2023/05/22 05:38:31;;;;;;;7.43;6.82;;;20.70;61.00;;;;;;5072806;28;20182;-65
2023/05/22 05:40:57;;;;;;;6.78;6.28;;;20.80;61.00;;;;;;5072166;28;20228;-64
2023/05/22 05:43:24;;;;;;;7.45;6.85;;;20.70;60.90;;;;;;5072540;28;20250;-64
2023/05/22 05:45:49;;;;;;;7.65;7.05;;;20.70;60.90;;;;;;5072963;28;20190;-64
2023/05/22 05:48:15;;;;;;;7.50;6.85;;;20.70;60.90;;;;;;5071662;28;20213;-64
2023/05/22 05:50:41;;;;;;;7.45;6.80;;;20.80;60.90;;;;;;5072848;28;20231;-63
2023/05/22 05:53:07;;;;;;;6.78;6.28;;;20.80;60.90;;;;;;5072375;28;20182;-64
2023/05/22 05:55:32;;;;;;;6.82;6.32;;;20.80;60.90;;;;;;5072164;28;20533;-64
2023/05/22 05:57:58;;;;;;;7.18;6.57;;;20.80;61.00;;;;;;5072852;28;20253;-65
2023/05/22 06:00:24;;;;;;;6.70;6.20;;;20.80;61.00;;;;;;5072597;28;20171;-65
2023/05/22 06:02:49;;;;;;;7.15;6.45;;;20.80;61.00;;;;;;5071892;28;20255;-66
2023/05/22 06:05:16;;;;;;;6.38;5.88;;;20.80;61.00;;;;;;5072398;28;20203;-65
2023/05/22 06:07:42;;;;;;;7.25;6.65;;;20.80;61.00;;;;;;5071930;28;20175;-64
2023/05/22 06:10:09;;;;;;;6.68;6.13;;;20.80;61.80;;;;;;5072552;28;20563;-64
2023/05/22 06:12:35;;;;;;;6.32;5.82;;;20.80;60.90;;;;;;5072735;28;20201;-64
2023/05/22 06:15:03;;;;;;;6.40;5.90;;;20.80;60.80;;;;;;5071990;28;20178;-64
2023/05/22 06:17:29;;;;;;;7.13;6.53;;;20.80;60.80;;;;;;5072292;28;20178;-63
2023/05/22 06:19:54;;;;;;;6.60;6.10;;;20.80;60.90;;;;;;5072512;28;20262;-64
2023/05/22 06:22:20;;;;;;;6.82;6.32;;;20.80;60.80;;;;;;5071882;28;20218;-63
2023/05/22 06:24:45;;;;;;;7.25;6.55;;;20.90;60.80;;;;;;5072384;28;20174;-63
2023/05/22 06:27:11;;;;;;;5.60;5.20;;;20.80;60.70;;;;;;5072120;28;20218;-64
2023/05/22 06:29:36;;;;;;;5.40;5.00;;;20.80;60.70;;;;;;5071861;28;20170;-64
2023/05/22 06:32:02;;;;;;;6.13;5.72;;;20.80;60.70;;;;;;5072068;28;20574;-65
2023/05/22 06:34:28;;;;;;;6.18;5.70;;;20.80;60.60;;;;;;5071551;28;20167;-65
2023/05/22 06:36:54;;;;;;;6.70;6.10;;;20.80;60.70;;;;;;5072121;28;20273;-65
2023/05/22 06:39:20;;;;;;;6.45;5.95;;;20.90;61.10;;;;;;5071507;28;20253;-64
2023/05/22 06:41:45;;;;;;;6.07;5.57;;;21.00;61.30;;;;;;5072969;28;20198;-65
2023/05/22 06:44:11;;;;;;;6.38;5.88;;;21.00;61.50;;;;;;5074923;28;20200;-65
2023/05/22 06:46:37;;;;;;;6.57;6.07;;;21.00;61.40;;;;;;5079851;28;20174;-65
2023/05/22 06:49:03;;;;;;;7.55;6.10;;;21.00;61.30;;;;;;5076018;28;20193;-63
2023/05/22 06:51:28;;;;;;;6.15;5.63;;;21.00;61.30;;;;;;5074935;28;20166;-62
2023/05/22 06:53:54;;;;;;;6.63;6.10;;;21.00;61.30;;;;;;5076063;28;20190;-64
2023/05/22 06:56:19;;;;;;;7.63;6.07;;;21.00;61.40;;;;;;5075555;28;20633;-64
2023/05/22 06:58:45;;;;;;;6.68;6.18;;;21.00;61.50;;;;;;5075271;28;20190;-65
2023/05/22 07:01:10;;;;;;;6.53;5.93;;;21.10;61.50;;;;;;5075410;28;20170;-65
2023/05/22 07:03:36;;;;;;;7.15;5.82;;;21.10;61.40;;;;;;5075423;28;20284;-65
2023/05/22 07:06:02;;;;;;;6.32;5.72;;;21.00;61.30;;;;;;5074941;28;20549;-65
2023/05/22 07:08:27;;;;;;;6.95;6.35;;;21.00;61.20;;;;;;5075515;28;20625;-64
2023/05/22 07:10:53;;;;;;;9.35;6.80;;;21.10;61.30;;;;;;5075661;28;20192;-64
2023/05/22 07:13:22;;;;;;;7.10;6.18;;;21.00;61.20;;;;;;5074658;28;20587;-64
2023/05/22 07:15:47;;;;;;;6.68;6.07;;;21.10;61.30;;;;;;5075651;28;20285;-64
2023/05/22 07:18:14;;;;;;;6.53;6.03;;;21.10;61.30;;;;;;5074464;28;20639;-64
2023/05/22 07:20:39;;;;;;;7.13;6.43;;;21.10;62.10;;;;;;5075473;28;20257;-64
2023/05/22 07:23:06;;;;;;;6.43;5.82;;;21.10;61.30;;;;;;5074455;28;20300;-64
2023/05/22 07:25:31;;;;;;;6.65;6.03;;;21.10;61.30;;;;;;5074821;28;20178;-64
2023/05/22 07:27:57;;;;;;;6.28;5.78;;;21.10;61.30;;;;;;5075529;28;20201;-64
2023/05/22 07:30:23;;;;;;;6.60;5.85;;;21.10;61.30;;;;;;5075013;28;20193;-64
2023/05/22 07:32:48;;;;;;;8.60;6.45;;;21.10;61.30;;;;;;5074480;28;20171;-65
2023/05/22 07:35:14;;;;;;;6.82;6.22;;;21.10;61.30;;;;;;5074681;28;20292;-66
2023/05/22 07:37:40;;;;;;;7.70;7.00;;;21.10;61.40;;;;;;5075335;28;20574;-65
2023/05/22 07:40:06;;;;;;;8.05;7.32;;;21.20;61.50;;;;;;5074286;28;20495;-65
2023/05/22 07:42:32;;;;;;;7.07;6.47;;;21.10;61.40;;;;;;5075125;28;20210;-64
2023/05/22 07:44:57;;;;;;;7.78;6.50;;;21.20;61.50;;;;;;5074819;28;20716;-65
2023/05/22 07:47:23;;;;;;;7.70;7.00;;;21.20;61.60;;;;;;5074042;28;20178;-64
2023/05/22 07:49:48;;;;;;;7.45;6.75;;;21.20;61.60;;;;;;5074814;28;20167;-64
2023/05/22 07:52:14;;;;;;;7.25;6.63;;;21.20;61.60;;;;;;5074703;28;20232;-64
2023/05/22 07:54:39;;;;;;;6.43;5.93;;;21.20;61.60;;;;;;5073553;28;20239;-64
2023/05/22 07:57:06;;;;;;;6.45;5.90;;;21.20;61.60;;;;;;5074562;28;20580;-64
2023/05/22 07:59:32;;;;;;;6.85;6.25;;;21.20;61.50;;;;;;5074822;28;20174;-65
2023/05/22 08:01:58;;;;;;;7.03;6.40;;;21.30;62.40;;;;;;5073812;28;20206;-65
2023/05/22 08:04:24;;;;;;;6.65;6.15;;;21.30;61.40;;;;;;5074430;28;20185;-66
2023/05/22 08:06:50;;;;;;;6.35;5.72;;;21.20;61.30;;;;;;5074705;28;20175;-65
2023/05/22 08:09:15;;;;;;;6.40;5.88;;;21.30;61.30;;;;;;5073505;28;20175;-64
2023/05/22 08:11:41;;;;;;;6.18;5.65;;;21.30;61.30;;;;;;5074454;28;20171;-64
2023/05/22 08:14:07;;;;;;;6.53;5.95;;;21.30;61.40;;;;;;5074300;28;20175;-64
2023/05/22 08:16:32;;;;;;;6.07;5.47;;;21.20;61.60;;;;;;5073592;28;20621;-64
2023/05/22 08:18:58;;;;;;;5.00;4.50;;;21.30;61.40;;;;;;5074480;28;20178;-64
2023/05/22 08:21:23;;;;;;;6.25;5.68;;;21.30;61.30;;;;;;5073282;28;20171;-64
2023/05/22 08:23:49;;;;;;;5.82;5.32;;;21.30;61.20;;;;;;5074393;28;20182;-63
2023/05/22 08:26:14;;;;;;;5.75;5.25;;;21.30;61.20;;;;;;5073910;28;20178;-64
2023/05/22 08:28:43;;;;;;;6.57;5.05;;;21.40;61.10;;;;;;5073246;28;20648;-64
2023/05/22 08:31:11;;;;;;;5.75;5.35;;;21.40;61.00;;;;;;5073603;28;20652;-64
2023/05/22 08:33:37;;;;;;;5.72;5.22;;;21.30;60.90;;;;;;5074015;28;20264;-65
2023/05/22 08:36:03;;;;;;;5.93;5.40;;;21.40;61.00;;;;;;5073549;28;20265;-65
2023/05/22 08:38:29;;;;;;;6.93;5.65;;;21.50;61.00;;;;;;5073746;28;20568;-65
2023/05/22 08:40:54;;;;;;;5.97;5.38;;;21.50;61.00;;;;;;5073923;28;20170;-64
2023/05/22 08:43:20;;;;;;;6.10;5.60;;;21.50;61.00;;;;;;5072789;28;20675;-64
2023/05/22 08:45:48;;;;;;;6.07;5.60;;;21.50;60.90;;;;;;5073625;28;20175;-64
2023/05/22 08:48:13;;;;;;;5.53;5.03;;;21.50;60.90;;;;;;5055543;28;20668;-64
2023/05/22 08:50:40;;;;;;;6.18;5.57;;;21.50;60.90;;;;;;5071930;28;20179;-63
2023/05/22 08:53:06;;;;;;;5.57;5.18;;;21.50;60.90;;;;;;5072716;28;20627;-64
2023/05/22 08:55:31;;;;;;;5.40;5.00;;;21.60;60.90;;;;;;5055684;28;20170;-64
2023/05/22 08:57:57;;;;;;;6.10;5.57;;;21.60;60.80;;;;;;5054954;28;20232;-65
2023/05/22 09:00:22;;;;;;;5.65;5.22;;;21.60;60.80;;;;;;5071989;28;20170;-64
2023/05/22 09:02:48;;;;;;;5.93;5.53;;;21.60;60.70;;;;;;5073224;28;20267;-65
2023/05/22 09:05:14;;;;;;;5.30;4.90;;;21.60;60.70;;;;;;5070488;28;20653;-65
2023/05/22 09:07:39;;;;;;;6.20;5.60;;;21.70;60.70;;;;;;5072352;28;20552;-64
2023/05/22 09:10:06;;;;;;;5.47;5.07;;;21.70;60.60;;;;;;5072909;28;20177;-64
2023/05/22 09:12:32;;;;;;;5.95;5.47;;;21.70;60.50;;;;;;5072734;28;20179;-64
2023/05/22 09:15:09;;;;;;;5.32;4.93;;;21.80;60.50;;;;;;5073149;28;20190;-64
2023/05/22 09:17:37;;;;;;;4.80;4.50;;;21.80;60.40;;;;;;5072926;28;20253;-64
2023/05/22 09:20:04;;;;;;;5.35;4.95;;;21.80;60.50;;;;;;5072051;28;20213;-64
2023/05/22 09:22:39;;;;;;;6.07;5.47;;;21.70;60.50;;;;;;5073146;28;20206;-64
2023/05/22 09:25:05;;;;;;;5.70;5.20;;;21.80;60.50;;;;;;5072058;28;20533;-63
2023/05/22 09:27:31;;;;;;;5.07;4.68;;;21.80;60.50;;;;;;5072976;28;20252;-64
2023/05/22 09:29:57;;;;;;;5.95;5.30;;;21.80;60.40;;;;;;5072894;28;20209;-64
2023/05/22 09:32:23;;;;;;;5.45;5.05;;;21.90;60.40;;;;;;5071844;28;20581;-65
2023/05/22 09:34:49;;;;;;;5.47;4.97;;;21.90;60.30;;;;;;5072610;28;20238;-65
2023/05/22 09:37:15;;;;;;;5.28;4.88;;;21.90;60.30;;;;;;5071495;28;20231;-65
2023/05/22 09:39:44;;;;;;;6.00;5.50;;;21.90;60.20;;;;;;5072075;28;20174;-65
2023/05/22 09:42:11;;;;;;;5.70;5.13;;;21.90;60.10;;;;;;5072407;28;20202;-64
2023/05/22 09:44:37;;;;;;;5.13;4.72;;;21.90;60.30;;;;;;5072978;28;20188;-64
2023/05/22 09:47:04;;;;;;;5.82;5.32;;;21.90;60.50;;;;;;5072119;28;20189;-65
2023/05/22 09:49:30;;;;;;;5.97;5.55;;;21.90;60.40;;;;;;5071756;28;20208;-64
2023/05/22 09:51:55;;;;;;;5.97;5.47;;;21.90;60.60;;;;;;5072847;28;20178;-64
2023/05/22 09:54:21;;;;;;;6.47;5.82;;;21.80;60.70;;;;;;5053795;28;20530;-64
2023/05/22 09:56:47;;;;;;;5.85;5.35;;;21.80;60.80;;;;;;5054470;28;20205;-65
2023/05/22 09:59:13;;;;;;;5.70;5.22;;;21.80;60.90;;;;;;5072603;28;20252;-65
2023/05/22 10:01:38;;;;;;;5.78;5.38;;;21.90;60.60;;;;;;5070796;28;20248;-65
2023/05/22 10:04:04;;;;;;;5.75;5.25;;;22.00;60.50;;;;;;5071514;28;20256;-65
2023/05/22 10:06:30;;;;;;;5.90;5.40;;;21.90;60.40;;;;;;5054739;28;20170;-65
2023/05/22 10:09:03;;;;;;;5.65;5.25;;;22.00;60.40;;;;;;5070745;28;20174;-64
2023/05/22 10:11:28;;;;;;;5.75;5.35;;;22.00;60.30;;;;;;5071013;28;20704;-64
2023/05/22 10:13:54;;;;;;;6.10;5.70;;;22.00;60.30;;;;;;5072068;28;20273;-64
2023/05/22 10:16:19;;;;;;;6.18;5.72;;;22.00;60.50;;;;;;5072058;28;20575;-65
2023/05/22 10:18:45;;;;;;;5.63;5.22;;;22.00;60.50;;;;;;5076676;28;20171;-65
2023/05/22 10:21:11;;;;;;;5.95;5.45;;;22.00;60.60;;;;;;5057397;28;21035;-64
2023/05/22 10:23:37;;;;;;;5.85;5.35;;;22.10;60.50;;;;;;5076451;28;20249;-66
2023/05/22 10:26:03;;;;;;;5.65;4.75;;;22.00;60.50;;;;;;5058538;28;20585;-62
2023/05/22 10:28:40;;;;;;;6.00;5.57;;;21.90;60.60;;;;;;5074257;28;20181;-62
2023/05/22 10:31:13;;;;;;;5.85;5.35;;;22.10;60.80;;;;;;5058730;28;20633;-63
2023/05/22 10:33:41;;;;;;;5.90;5.15;;;22.20;60.80;;;;;;5075482;28;20253;-62
2023/05/22 10:36:07;;;;;;;6.13;5.55;;;22.20;60.80;;;;;;5073840;28;20260;-63
2023/05/22 10:38:55;;;;;;;6.47;5.88;;;22.20;60.90;;;;;;5075051;28;20273;-62
2023/05/22 10:41:21;;;;;;;6.55;6.03;;;22.20;61.60;;;;;;5074620;28;20712;-62
2023/05/22 10:43:48;;;;;;;6.13;5.53;;;22.10;61.60;;;;;;5073681;28;20190;-63
2023/05/22 10:46:13;;;;;;;7.65;6.18;;;22.10;61.70;;;;;;5075244;28;20249;-63
2023/05/22 10:48:40;;;;;;;6.30;5.60;;;22.10;62.00;;;;;;5075339;28;20690;-63
2023/05/22 10:51:06;;;;;;;6.75;5.63;;;22.10;61.80;;;;;;5074546;28;20261;-63
2023/05/22 10:53:32;;;;;;;6.60;6.10;;;22.20;61.40;;;;;;5076163;28;20319;-63
2023/05/22 10:56:01;;;;;;;7.32;5.70;;;22.30;61.40;;;;;;5076176;28;20220;-63
2023/05/22 10:58:32;;;;;;;6.75;5.97;;;22.30;61.20;;;;;;5074963;28;20217;-64
2023/05/22 11:01:08;;;;;;;6.35;5.75;;;22.30;61.10;;;;;;5075783;28;20175;-64
2023/05/22 11:03:50;;;;;;;6.47;5.80;;;22.30;61.10;;;;;;5073647;28;20210;-64
2023/05/22 11:06:40;;;;;;;8.80;6.10;;;22.40;61.10;;;;;;5075613;28;20209;-64
2023/05/22 11:09:30;;;;;;;7.70;6.03;;;22.40;61.10;;;;;;5075495;28;20214;-64
2023/05/22 11:12:21;;;;;;;8.52;5.68;;;22.50;61.10;;;;;;5074955;28;20166;-63
2023/05/22 11:14:48;;;;;;;7.50;6.72;;;22.50;61.10;;;;;;5075673;28;20261;-63
2023/05/22 11:17:17;;;;;;;7.38;6.32;;;22.60;61.20;;;;;;5073161;28;20166;-63
2023/05/22 11:19:43;;;;;;;7.03;6.18;;;22.70;61.30;;;;;;5074270;28;20186;-65
2023/05/22 11:22:08;;;;;;;8.45;6.05;;;22.70;60.40;;;;;;5074902;28;20275;-64
2023/05/22 11:24:34;;;;;;;6.38;5.78;;;22.60;61.00;;;;;;5074698;28;20174;-64
2023/05/22 11:27:02;;;;;;;7.47;6.28;;;22.60;61.10;;;;;;5074071;28;20181;-64
2023/05/22 11:29:28;;;;;;;7.45;6.75;;;22.50;61.20;;;;;;5073759;28;20171;-65
2023/05/22 11:31:53;;;;;;;8.25;6.15;;;22.40;61.30;;;;;;5073461;28;20585;-65
2023/05/22 11:34:19;;;;;;;8.27;6.22;;;22.40;61.40;;;;;;5074274;28;20179;-66
2023/05/22 11:36:46;;;;;;;6.13;5.53;;;22.40;61.60;;;;;;5074823;28;20312;-66
2023/05/22 11:39:13;;;;;;;7.40;6.03;;;22.30;61.50;;;;;;5074373;28;20224;-66
2023/05/22 11:41:39;;;;;;;8.23;6.03;;;22.30;61.50;;;;;;5075110;28;20186;-65
2023/05/22 11:44:06;;;;;;;7.05;6.32;;;22.30;61.50;;;;;;5074739;28;20537;-65
2023/05/22 11:46:32;;;;;;;6.85;6.18;;;22.40;61.30;;;;;;5074358;28;20256;-65
2023/05/22 11:48:57;;;;;;;8.43;6.43;;;22.50;61.00;;;;;;5074964;28;20217;-65
2023/05/22 11:51:23;;;;;;;6.40;5.78;;;22.50;61.50;;;;;;5074348;28;20190;-64
2023/05/22 11:53:49;;;;;;;6.43;5.90;;;22.50;60.60;;;;;;5074311;28;20772;-64
2023/05/22 11:56:15;;;;;;;6.60;6.00;;;22.70;60.40;;;;;;5074570;28;20166;-65
2023/05/22 11:58:41;;;;;;;7.25;6.55;;;22.70;60.40;;;;;;5073681;28;20175;-65
2023/05/22 12:01:06;;;;;;;7.70;6.13;;;22.80;60.30;;;;;;5073819;28;20672;-66
2023/05/22 12:03:32;;;;;;;6.88;6.28;;;22.70;60.40;;;;;;5074930;28;20684;-66
2023/05/22 12:05:57;;;;;;;7.25;6.25;;;22.70;60.40;;;;;;5074605;28;20327;-65
2023/05/22 12:08:26;;;;;;;6.95;6.38;;;22.60;60.50;;;;;;5073623;28;20178;-65
2023/05/22 12:10:52;;;;;;;9.15;6.68;;;22.50;61.30;;;;;;5074598;28;20178;-64
2023/05/22 12:13:27;;;;;;;7.05;6.35;;;22.50;60.90;;;;;;5074339;28;20171;-64
2023/05/22 12:15:55;;;;;;;7.00;6.30;;;22.50;61.00;;;;;;5074872;28;20201;-65
2023/05/22 12:18:20;;;;;;;6.53;6.03;;;22.40;61.10;;;;;;5073996;28;20200;-64
2023/05/22 12:20:46;;;;;;;6.68;6.10;;;22.40;61.10;;;;;;5073787;28;20178;-64
2023/05/22 12:23:24;;;;;;;7.10;6.40;;;22.40;61.20;;;;;;5074101;28;20220;-64
2023/05/22 12:26:01;;;;;;;7.00;6.30;;;22.40;61.20;;;;;;5074327;28;20182;-64
2023/05/22 12:28:27;;;;;;;6.97;6.40;;;22.30;61.30;;;;;;5073147;28;20265;-64
2023/05/22 12:30:53;;;;;;;7.78;6.55;;;22.30;62.10;;;;;;5073997;28;20257;-65
2023/05/22 12:33:19;;;;;;;7.40;6.18;;;22.30;61.20;;;;;;5072409;28;20205;-66
2023/05/22 12:35:48;;;;;;;7.07;6.20;;;22.30;61.10;;;;;;5073209;28;20689;-67
2023/05/22 12:38:14;;;;;;;6.95;6.38;;;22.40;61.00;;;;;;5073752;28;20646;-66
2023/05/22 12:40:40;;;;;;;7.05;6.35;;;22.40;60.80;;;;;;5073705;28;20177;-67
2023/05/22 12:43:05;;;;;;;6.85;6.18;;;22.50;60.80;;;;;;5072912;28;20297;-66
2023/05/22 12:45:31;;;;;;;7.80;6.72;;;22.60;60.50;;;;;;5073798;28;20262;-65